createdAt,value
2019-05-30T00:01:14.886Z,0.60
2019-05-30T00:05:22.957Z,0.50
2019-05-30T00:09:30.497Z,0.50
2019-05-30T00:13:38.043Z,0.50
2019-05-30T00:17:45.576Z,0.50
2019-05-30T00:21:52.991Z,0.45
2019-05-30T00:26:01.355Z,0.60
2019-05-30T00:30:23.071Z,0.57
2019-05-30T00:34:18.322Z,0.60
2019-05-30T00:38:25.838Z,0.80
2019-05-30T00:42:33.336Z,0.60
2019-05-30T00:46:40.811Z,0.60
2019-05-30T00:50:48.342Z,0.70
2019-05-30T00:54:56.429Z,0.60
2019-05-30T00:59:04.933Z,0.80
2019-05-30T01:03:12.522Z,0.70
2019-05-30T01:07:20.117Z,0.60
2019-05-30T01:11:27.803Z,0.60
2019-05-30T01:15:35.552Z,0.60
2019-05-30T01:19:43.554Z,0.60
2019-05-30T01:23:51.018Z,0.50
2019-05-30T01:28:01.534Z,0.62
2019-05-30T01:32:28.928Z,0.60
2019-05-30T01:36:36.651Z,0.57
2019-05-30T01:40:44.156Z,0.68
2019-05-30T01:44:52.682Z,0.50
2019-05-30T01:49:00.353Z,0.65
2019-05-30T01:53:08.897Z,0.65
2019-05-30T01:57:17.735Z,0.60
2019-05-30T02:01:25.907Z,0.68
2019-05-30T02:05:33.544Z,0.70
2019-05-30T02:09:41.228Z,0.60
2019-05-30T02:13:48.832Z,0.60
2019-05-30T02:17:56.493Z,0.55
2019-05-30T02:22:04.308Z,0.50
2019-05-30T02:26:12.093Z,0.60
2019-05-30T02:30:19.890Z,0.60
2019-05-30T02:34:27.801Z,0.60
2019-05-30T02:38:35.619Z,0.50
2019-05-30T02:42:43.839Z,0.50
2019-05-30T02:46:53.758Z,0.40
2019-05-30T02:51:01.315Z,0.30
2019-05-30T02:55:11.024Z,0.50
2019-05-30T02:59:18.818Z,0.47
2019-05-30T03:03:26.494Z,0.42
2019-05-30T03:07:34.050Z,0.50
2019-05-30T03:11:49.037Z,0.40
2019-05-30T03:15:56.662Z,0.33
2019-05-30T03:20:11.954Z,0.40
2019-05-30T03:24:14.453Z,0.40
2019-05-30T03:28:22.528Z,0.50
2019-05-30T03:33:01.798Z,0.45
2019-05-30T03:36:40.166Z,0.45
2019-05-30T03:40:47.998Z,0.40
2019-05-30T03:44:55.713Z,0.35
2019-05-30T03:49:04.340Z,0.40
2019-05-30T03:53:16.026Z,0.53
2019-05-30T03:57:26.547Z,0.50
2019-05-30T04:01:43.146Z,0.40
2019-05-30T04:05:54.172Z,0.40
2019-05-30T04:10:01.735Z,0.40
2019-05-30T04:14:11.037Z,0.50
2019-05-30T04:18:20.049Z,0.40
2019-05-30T04:22:29.799Z,0.30
2019-05-30T04:26:37.727Z,0.35
2019-05-30T04:30:46.222Z,0.33
2019-05-30T04:34:54.608Z,0.50
2019-05-30T04:39:02.366Z,0.35
2019-05-30T04:43:13.562Z,0.50
2019-05-30T04:47:26.573Z,0.50
2019-05-30T04:51:37.309Z,0.50
2019-05-30T04:55:45.177Z,0.60
2019-05-30T04:59:52.912Z,0.40
2019-05-30T05:04:03.570Z,0.40
2019-05-30T05:08:11.766Z,0.40
2019-05-30T05:12:20.402Z,0.40
2019-05-30T05:16:35.476Z,0.33
2019-05-30T05:20:37.212Z,0.50
2019-05-30T05:24:44.752Z,0.37
2019-05-30T05:28:52.231Z,0.40
2019-05-30T05:32:59.728Z,0.33
2019-05-30T05:37:08.811Z,0.40
2019-05-30T05:41:16.357Z,0.50
2019-05-30T05:45:24.736Z,0.40
2019-05-30T05:49:32.482Z,0.40
2019-05-30T05:53:42.005Z,0.20
2019-05-30T05:57:54.653Z,0.42
2019-05-30T06:02:03.149Z,0.37
2019-05-30T06:06:13.523Z,0.40
2019-05-30T06:10:25.736Z,0.40
2019-05-30T06:14:34.340Z,0.50
2019-05-30T06:18:43.171Z,0.40
2019-05-30T06:22:51.414Z,0.40
2019-05-30T06:27:02.711Z,0.57
2019-05-30T06:31:10.620Z,0.40
2019-05-30T06:35:21.461Z,0.50
2019-05-30T06:39:29.813Z,0.50
2019-05-30T06:43:38.198Z,0.50
2019-05-30T06:47:48.718Z,0.40
2019-05-30T06:51:56.279Z,0.40
2019-05-30T06:56:04.231Z,0.42
2019-05-30T07:00:13.374Z,0.50
2019-05-30T07:04:25.103Z,0.55
2019-05-30T07:08:33.812Z,0.53
2019-05-30T07:12:44.408Z,0.40
2019-05-30T07:16:52.037Z,0.47
2019-05-30T07:20:59.746Z,0.30
2019-05-30T07:25:07.402Z,0.50
2019-05-30T07:29:14.965Z,0.40
2019-05-30T07:33:23.968Z,0.40
2019-05-30T07:37:32.376Z,0.30
2019-05-30T07:41:42.439Z,0.30
2019-05-30T07:45:58.014Z,0.37
2019-05-30T07:50:00.143Z,0.40
2019-05-30T07:54:07.911Z,0.40
2019-05-30T07:58:15.664Z,0.40
2019-05-30T08:02:23.241Z,0.40
2019-05-30T08:06:31.541Z,0.30
2019-05-30T08:10:39.185Z,0.40
2019-05-30T08:14:57.094Z,0.50
2019-05-30T08:19:04.641Z,0.40
2019-05-30T08:23:12.267Z,0.50
2019-05-30T08:27:20.182Z,0.50
2019-05-30T08:31:28.578Z,0.50
2019-05-30T08:35:46.894Z,0.40
2019-05-30T08:39:45.495Z,0.40
2019-05-30T08:43:53.096Z,0.35
2019-05-30T08:48:02.071Z,0.50
2019-05-30T08:52:10.933Z,0.40
2019-05-30T08:56:42.553Z,0.30
2019-05-30T09:00:52.832Z,0.30
2019-05-30T09:05:06.559Z,0.42
2019-05-30T09:09:14.020Z,0.50
2019-05-30T09:13:23.104Z,0.37
2019-05-30T09:17:31.583Z,0.30
2019-05-30T09:21:41.442Z,0.40
2019-05-30T09:25:51.007Z,0.30
2019-05-30T09:29:59.934Z,0.40
2019-05-30T09:34:12.127Z,0.30
2019-05-30T09:38:23.791Z,0.40
2019-05-30T09:42:34.522Z,0.30
2019-05-30T09:46:48.569Z,0.40
2019-05-30T09:51:02.733Z,0.20
2019-05-30T09:55:18.435Z,0.37
2019-05-30T09:59:29.014Z,0.40
2019-05-30T10:03:39.253Z,0.40
2019-05-30T10:07:49.352Z,0.47
2019-05-30T10:12:01.246Z,0.30
2019-05-30T10:16:09.827Z,0.50
2019-05-30T10:20:18.942Z,0.40
2019-05-30T10:24:27.470Z,0.30
2019-05-30T10:28:37.259Z,0.28
2019-05-30T10:32:47.390Z,0.40
2019-05-30T10:36:58.039Z,0.30
2019-05-30T10:41:09.006Z,0.30
2019-05-30T10:45:18.680Z,0.40
2019-05-30T10:49:34.832Z,0.20
2019-05-30T10:53:41.643Z,0.30
2019-05-30T10:57:51.620Z,0.30
2019-05-30T11:02:00.434Z,0.30
2019-05-30T11:06:35.877Z,0.33
2019-05-30T11:10:46.407Z,0.30
2019-05-30T11:14:55.320Z,0.28
2019-05-30T11:19:07.474Z,0.37
2019-05-30T11:23:17.739Z,0.30
2019-05-30T11:27:27.553Z,0.20
2019-05-30T11:31:38.090Z,0.20
2019-05-30T11:35:46.684Z,0.20
2019-05-30T11:39:57.303Z,0.25
2019-05-30T11:44:05.622Z,0.20
2019-05-30T11:48:14.183Z,0.28
2019-05-30T11:52:22.698Z,0.30
2019-05-30T11:56:31.205Z,0.20
2019-05-30T12:00:39.845Z,0.20
2019-05-30T12:04:48.385Z,0.30
2019-05-30T12:08:57.017Z,0.30
2019-05-30T12:13:05.690Z,0.28
2019-05-30T12:17:15.239Z,0.20
2019-05-30T12:21:24.349Z,0.20
2019-05-30T12:25:32.846Z,0.20
2019-05-30T12:29:41.366Z,0.30
2019-05-30T12:33:49.777Z,0.30
2019-05-30T12:38:02.658Z,0.30
2019-05-30T12:42:09.063Z,0.20
2019-05-30T12:46:17.593Z,0.20
2019-05-30T12:50:27.092Z,0.23
2019-05-30T12:54:36.521Z,0.10
2019-05-30T12:58:45.109Z,0.20
2019-05-30T13:02:54.696Z,0.20
2019-05-30T13:07:04.180Z,0.30
2019-05-30T13:11:14.996Z,0.50
2019-05-30T13:15:23.470Z,0.50
2019-05-30T13:19:31.991Z,0.50
2019-05-30T13:23:41.990Z,0.60
2019-05-30T13:27:50.664Z,0.40
2019-05-30T13:32:00.385Z,0.53
2019-05-30T13:36:09.076Z,0.28
2019-05-30T13:40:25.361Z,0.30
2019-05-30T13:44:31.047Z,0.40
2019-05-30T13:48:39.474Z,0.30
2019-05-30T13:52:48.171Z,0.37
2019-05-30T13:56:56.718Z,0.57
2019-05-30T14:01:10.478Z,0.50
2019-05-30T14:05:16.204Z,0.40
2019-05-30T14:09:25.883Z,0.50
2019-05-30T14:13:35.543Z,0.30
2019-05-30T14:17:44.006Z,0.37
2019-05-30T14:21:52.661Z,0.50
2019-05-30T14:26:03.231Z,0.35
2019-05-30T14:30:13.084Z,0.47
2019-05-30T14:38:29.069Z,0.93
2019-05-30T14:42:37.579Z,0.80
2019-05-30T14:46:46.078Z,0.78
2019-05-30T14:50:54.539Z,0.60
2019-05-30T14:55:02.970Z,0.60
2019-05-30T14:59:13.157Z,0.50
2019-05-30T15:03:21.786Z,0.40
2019-05-30T15:07:30.298Z,0.50
2019-05-30T15:11:39.017Z,0.40
2019-05-30T15:15:47.505Z,0.35
2019-05-30T15:19:58.184Z,0.30
2019-05-30T15:24:07.797Z,0.40
2019-05-30T15:28:16.670Z,0.33
2019-05-30T15:32:25.197Z,0.33
2019-05-30T15:36:34.181Z,0.30
2019-05-30T15:40:42.819Z,0.50
2019-05-30T15:49:00.557Z,0.30
2019-05-30T15:53:13.105Z,0.27
2019-05-30T15:57:21.973Z,0.40
2019-05-30T16:05:40.184Z,0.30
2019-05-30T16:09:48.706Z,0.30
2019-05-30T16:13:57.484Z,0.40
2019-05-30T16:18:06.428Z,0.30
2019-05-30T16:22:18.360Z,0.30
2019-05-30T16:26:28.502Z,0.40
2019-05-30T16:30:39.199Z,0.40
2019-05-30T16:34:47.735Z,0.20
2019-05-30T16:38:56.559Z,0.20
2019-05-30T16:43:05.594Z,0.20
2019-05-30T16:47:14.590Z,0.20
2019-05-30T16:51:23.610Z,0.30
2019-05-30T16:55:33.740Z,0.20
2019-05-30T17:03:49.785Z,0.30
2019-05-30T17:07:59.991Z,0.13
2019-05-30T17:12:09.034Z,0.10
2019-05-30T17:16:17.894Z,0.20
2019-05-30T17:20:27.935Z,0.10
2019-05-30T17:24:36.512Z,0.20
2019-05-30T17:28:45.299Z,0.30
2019-05-30T17:32:54.658Z,0.30
2019-05-30T17:37:04.700Z,0.15
2019-05-30T17:41:13.375Z,0.10
2019-05-30T17:49:32.164Z,0.20
2019-05-30T17:53:41.694Z,0.20
2019-05-30T17:57:54.428Z,0.30
2019-05-30T18:02:02.990Z,0.20
2019-05-30T18:06:11.667Z,0.23
2019-05-30T18:10:24.843Z,0.30
2019-05-30T18:14:37.678Z,0.30
2019-05-30T18:18:47.421Z,0.20
2019-05-30T18:22:57.027Z,0.10
2019-05-30T18:27:08.051Z,0.20
2019-05-30T18:31:17.565Z,0.10
2019-05-30T18:35:26.305Z,0.10
2019-05-30T18:39:36.268Z,0.00
2019-05-30T18:43:44.877Z,0.10
2019-05-30T18:47:54.047Z,0.20
2019-05-30T18:52:03.052Z,0.20
2019-05-30T18:56:12.585Z,0.30
2019-05-30T19:00:21.148Z,0.20
2019-05-30T19:04:29.738Z,0.10
2019-05-30T19:08:39.247Z,0.20
2019-05-30T19:12:50.548Z,0.15
2019-05-30T19:16:59.418Z,0.13
2019-05-30T19:21:08.798Z,0.10
2019-05-30T19:25:20.693Z,0.20
2019-05-30T19:29:31.051Z,0.20
2019-05-30T19:33:40.121Z,0.20
2019-05-30T19:37:48.998Z,0.20
2019-05-30T19:41:57.856Z,0.10
2019-05-30T19:46:08.067Z,0.10
2019-05-30T19:50:16.732Z,0.13
2019-05-30T19:54:25.543Z,0.28
2019-05-30T19:58:35.549Z,0.20
2019-05-30T20:02:44.473Z,0.20
2019-05-30T20:06:53.111Z,0.10
2019-05-30T20:11:02.198Z,0.17
2019-05-30T20:15:12.607Z,0.20
2019-05-30T20:19:21.280Z,0.10
2019-05-30T20:23:30.177Z,0.20
2019-05-30T20:27:40.890Z,0.30
2019-05-30T20:31:50.650Z,0.08
2019-05-30T20:35:59.991Z,0.10
2019-05-30T20:40:09.412Z,0.20
2019-05-30T20:44:18.320Z,0.13
2019-05-30T20:48:27.057Z,0.20
2019-05-30T20:52:40.489Z,0.20
2019-05-30T21:00:56.284Z,0.20
2019-05-30T21:05:07.364Z,0.30
2019-05-30T21:09:28.480Z,0.13
2019-05-30T21:13:29.175Z,0.25
2019-05-30T21:17:37.868Z,0.20
2019-05-30T21:21:46.508Z,0.10
2019-05-30T21:25:55.454Z,0.17
2019-05-30T21:30:04.176Z,0.10
2019-05-30T21:34:13.289Z,0.20
2019-05-30T21:38:21.974Z,0.10
2019-05-30T21:42:30.433Z,0.20
2019-05-30T21:46:42.471Z,0.10
2019-05-30T21:50:51.957Z,0.20
2019-05-30T21:55:03.561Z,0.10
2019-05-30T21:59:12.234Z,0.20
2019-05-30T22:03:21.765Z,0.20
2019-05-30T22:07:30.326Z,0.20
2019-05-30T22:11:38.854Z,0.30
2019-05-30T22:15:48.251Z,0.20
2019-05-30T22:19:57.084Z,0.20
2019-05-30T22:24:06.163Z,0.20
2019-05-30T22:28:15.161Z,0.10
2019-05-30T22:32:27.280Z,0.20
2019-05-30T22:36:35.742Z,0.20
2019-05-30T22:40:45.816Z,0.30
2019-05-30T22:44:56.323Z,0.10
2019-05-30T22:49:05.054Z,0.23
2019-05-30T22:53:13.492Z,0.10
2019-05-30T22:57:22.032Z,0.30
2019-05-30T23:01:31.041Z,0.20
2019-05-30T23:05:39.557Z,0.20
2019-05-30T23:09:48.044Z,0.20
2019-05-30T23:13:56.578Z,0.10
2019-05-30T23:18:04.993Z,0.10
2019-05-30T23:22:13.406Z,0.00
2019-05-30T23:26:22.090Z,0.20
2019-05-30T23:30:31.174Z,0.00
2019-05-30T23:34:39.598Z,0.15
2019-05-30T23:38:48.651Z,0.08
2019-05-30T23:42:57.572Z,0.10
2019-05-30T23:47:06.330Z,0.13
2019-05-30T23:51:14.861Z,0.10
2019-05-30T23:55:23.731Z,0.15
2019-05-30T23:59:34.503Z,0.08
